Time;durP1;ratioP1;P1;durP2;ratioP2;P2;SDS_P1;SDS_P2;PMS_P1;PMS_P2;Temp;Humidity;BMP_temperature;BMP_pressure;BME280_temperature;BME280_humidity;BME280_pressure;Samples;Min_cycle;Max_cycle;Signal;HPM_P1;HPM_P2
2022/09/21 00:01:29;;;;;;;7.23;6.63;;;;;;;2.67;nan;97836.78;4988964;28;20240;-60
2022/09/21 00:03:59;;;;;;;7.83;7.03;;;;;;;2.70;nan;97840.94;4907953;28;20785;-58
2022/09/21 00:06:30;;;;;;;7.60;6.77;;;;;;;2.72;nan;97839.03;4985282;28;20220;-56
2022/09/21 00:08:58;;;;;;;7.00;6.50;;;;;;;2.76;nan;97835.22;4965210;28;20720;-57
2022/09/21 00:11:28;;;;;;;7.37;6.67;;;;;;;2.74;nan;97827.50;4982768;28;20754;-57
2022/09/21 00:13:59;;;;;;;8.17;7.40;;;;;;;2.79;nan;97828.94;4961868;28;20233;-59
2022/09/21 00:16:28;;;;;;;10.87;7.87;;;;;;;2.88;nan;97830.84;4966770;28;20213;-54
2022/09/21 00:18:56;;;;;;;13.10;9.00;;;;;;;2.95;nan;97833.81;4933843;28;20218;-60
2022/09/21 00:21:25;;;;;;;11.87;8.97;;;;;;;3.01;nan;97831.53;4984069;28;20212;-56
2022/09/21 00:23:54;;;;;;;10.30;8.40;;;;;;;3.07;nan;97835.47;4983960;28;20693;-54
2022/09/21 00:26:24;;;;;;;12.47;8.17;;;;;;;3.09;nan;97833.56;4981526;28;20809;-58
2022/09/21 00:29:30;;;;;;;9.97;8.63;;;;;;;3.16;nan;97832.13;4969360;28;20444;-57
2022/09/21 00:31:58;;;;;;;16.83;7.97;;;;;;;3.16;nan;97832.13;4956954;28;20520;-61
2022/09/21 00:34:26;;;;;;;12.60;6.63;;;;;;;3.27;nan;97833.88;4931646;28;20291;-56
2022/09/21 00:36:55;;;;;;;14.47;7.27;;;;;;;3.42;nan;97829.22;4977125;28;20218;-56
2022/09/21 00:39:24;;;;;;;6.90;5.17;;;;;;;3.45;nan;97831.59;4983065;28;20293;-57
2022/09/21 00:41:53;;;;;;;6.47;5.90;;;;;;;3.53;nan;97828.38;4979736;28;20251;-59
2022/09/21 00:44:28;;;;;;;14.53;5.63;;;;;;;3.40;nan;97836.38;4984091;28;20770;-58
2022/09/21 00:46:58;;;;;;;12.23;5.20;;;;;;;3.43;nan;97838.75;4952309;28;20769;-60
2022/09/21 00:49:28;;;;;;;5.77;4.73;;;;;;;3.42;nan;97833.63;4925445;28;20581;-57
2022/09/21 00:51:57;;;;;;;15.97;5.23;;;;;;;3.40;nan;97835.53;4981429;28;20243;-59
2022/09/21 00:54:29;;;;;;;5.70;5.10;;;;;;;3.39;nan;97842.56;4949246;28;20233;-58
2022/09/21 00:57:01;;;;;;;7.37;5.30;;;;;;;3.46;nan;97840.28;4982215;28;20308;-61
2022/09/21 00:59:31;;;;;;;8.97;4.60;;;;;;;3.42;nan;97836.25;4984702;28;20274;-57
2022/09/21 01:02:00;;;;;;;3.90;3.60;;;;;;;3.47;nan;97831.47;4958624;28;20228;-59
2022/09/21 01:04:28;;;;;;;4.17;3.87;;;;;;;3.53;nan;97835.38;4939704;28;20245;-62
2022/09/21 01:06:57;;;;;;;24.57;5.63;;;;;;;3.56;nan;97832.50;4987258;28;20878;-58
2022/09/21 01:09:28;;;;;;;17.87;5.40;;;;;;;3.53;nan;97836.22;4993620;28;20398;-60
2022/09/21 01:12:07;;;;;;;10.30;4.60;;;;;;;3.65;nan;97834.41;4984798;28;20713;-57
2022/09/21 01:14:53;;;;;;;15.87;4.80;;;;;;;3.59;nan;97834.88;4990847;28;20240;-58
2022/09/21 01:17:28;;;;;;;13.80;4.33;;;;;;;3.57;nan;97842.88;4964450;28;20210;-62
2022/09/21 01:20:23;;;;;;;4.97;4.13;;;;;;;3.60;nan;97840.00;4935861;28;20644;-57
2022/09/21 01:23:05;;;;;;;4.00;3.60;;;;;;;3.56;nan;97841.22;4985088;28;20208;-58
2022/09/21 01:25:41;;;;;;;8.30;3.70;;;;;;;3.50;nan;97848.72;4990066;28;20237;-57
2022/09/21 01:28:20;;;;;;;3.70;3.50;;;;;;;3.60;nan;97849.69;4988706;28;20216;-57
2022/09/21 01:30:51;;;;;;;9.20;3.93;;;;;;;3.60;nan;97852.28;4985482;28;20235;-59
2022/09/21 01:33:26;;;;;;;3.20;3.00;;;;;;;3.56;nan;97849.06;4963578;28;20213;-57
2022/09/21 01:35:57;;;;;;;3.67;3.47;;;;;;;3.63;nan;97852.06;4897410;28;20428;-54
2022/09/21 01:38:28;;;;;;;3.43;3.23;;;;;;;3.56;nan;97843.84;4990693;28;20417;-58
2022/09/21 01:41:00;;;;;;;14.90;4.33;;;;;;;3.46;nan;97851.59;4971962;28;20243;-55
2022/09/21 01:43:33;;;;;;;5.10;3.27;;;;;;;3.30;nan;97840.69;4989548;28;20501;-60
2022/09/21 01:46:04;;;;;;;3.73;3.17;;;;;;;3.30;nan;97851.16;4995145;28;20228;-58
2022/09/21 01:48:35;;;;;;;4.90;3.30;;;;;;;3.19;nan;97852.81;4966063;28;20213;-53
2022/09/21 01:51:06;;;;;;;8.93;3.43;;;;;;;3.14;nan;97854.97;4936029;28;20224;-54
2022/09/21 01:53:38;;;;;;;3.97;3.60;;;;;;;3.23;nan;97852.59;4984192;28;20232;-60
2022/09/21 01:56:10;;;;;;;15.77;7.50;;;;;;;3.10;nan;97858.78;4923370;28;20227;-61
2022/09/21 01:58:42;;;;;;;16.73;4.40;;;;;;;3.14;nan;97860.22;4986501;28;20209;-62
2022/09/21 02:01:16;;;;;;;12.47;4.70;;;;;;;3.13;nan;97862.97;4988509;28;20213;-58
2022/09/21 02:03:47;;;;;;;3.57;3.37;;;;;;;3.12;nan;97854.25;4984713;28;20794;-57
2022/09/21 02:06:16;;;;;;;3.73;3.53;;;;;;;3.08;nan;97855.47;4983442;28;20700;-55
2022/09/21 02:08:46;;;;;;;7.40;3.97;;;;;;;3.10;nan;97853.53;4984182;28;20849;-60
2022/09/21 02:11:14;;;;;;;4.23;4.00;;;;;;;3.11;nan;97855.22;4934474;28;20301;-59
2022/09/21 02:13:45;;;;;;;8.07;3.73;;;;;;;3.06;nan;97839.03;4980247;28;20260;-58
2022/09/21 02:16:30;;;;;;;13.83;4.37;;;;;;;2.98;nan;97855.34;4956131;28;20212;-53
2022/09/21 02:19:10;;;;;;;4.73;4.33;;;;;;;3.06;nan;97852.13;4972075;28;20225;-56
2022/09/21 02:21:57;;;;;;;4.73;4.30;;;;;;;2.99;nan;97857.00;4984759;28;20421;-55
2022/09/21 02:24:34;;;;;;;6.80;4.17;;;;;;;2.91;nan;97856.75;4987978;28;20224;-56
2022/09/21 02:27:05;;;;;;;16.70;4.40;;;;;;;2.91;nan;97848.91;4934698;28;20236;-60
2022/09/21 02:29:41;;;;;;;8.30;4.97;;;;;;;2.88;nan;97852.63;4987353;28;20408;-61
2022/09/21 02:32:12;;;;;;;4.80;4.40;;;;;;;2.87;nan;97848.34;4985610;28;20219;-58
2022/09/21 02:34:45;;;;;;;6.10;5.20;;;;;;;2.80;nan;97851.53;4987774;28;20507;-54
2022/09/21 02:37:21;;;;;;;7.73;5.20;;;;;;;2.84;nan;97847.72;4983951;28;20443;-56
2022/09/21 02:39:56;;;;;;;8.50;5.47;;;;;;;2.84;nan;97853.81;4987499;28;20238;-58
2022/09/21 02:42:27;;;;;;;4.80;4.50;;;;;;;2.88;nan;97850.00;4934579;28;20224;-57
2022/09/21 02:44:59;;;;;;;6.83;4.90;;;;;;;2.93;nan;97854.03;4988037;28;20601;-60
2022/09/21 02:47:31;;;;;;;5.43;5.03;;;;;;;2.97;nan;97858.91;4985886;28;20395;-58
2022/09/21 02:50:03;;;;;;;12.17;5.87;;;;;;;2.96;nan;97852.00;4988287;28;20223;-59
2022/09/21 02:52:33;;;;;;;9.93;5.50;;;;;;;2.99;nan;97856.19;4985641;28;20825;-59
2022/09/21 02:55:02;;;;;;;13.93;5.10;;;;;;;3.01;nan;97859.50;4988234;28;20241;-57
2022/09/21 02:57:30;;;;;;;12.90;5.27;;;;;;;2.94;nan;97861.75;4932874;28;20920;-60
2022/09/21 02:59:59;;;;;;;6.53;5.00;;;;;;;2.91;nan;97859.38;4988990;28;20588;-60
2022/09/21 03:02:37;;;;;;;19.97;6.00;;;;;;;2.80;nan;97862.00;4984708;28;20441;-61
2022/09/21 03:05:07;;;;;;;9.23;5.10;;;;;;;2.87;nan;97852.72;4989666;28;20229;-59
2022/09/21 03:07:35;;;;;;;22.33;6.97;;;;;;;2.80;nan;97852.34;4988560;28;20349;-61
2022/09/21 03:10:05;;;;;;;7.47;4.83;;;;;;;2.91;nan;97861.19;4989742;28;20469;-60
2022/09/21 03:12:34;;;;;;;16.67;5.57;;;;;;;2.89;nan;97853.44;4930646;28;20301;-54
2022/09/21 03:15:02;;;;;;;4.47;4.07;;;;;;;2.90;nan;97857.72;4979234;28;20227;-59
2022/09/21 03:17:30;;;;;;;14.90;5.30;;;;;;;2.86;nan;97862.38;4979649;28;20208;-60
2022/09/21 03:20:00;;;;;;;11.27;6.10;;;;;;;2.83;nan;97867.00;4989729;28;20597;-59
2022/09/21 03:22:28;;;;;;;8.77;5.07;;;;;;;2.91;nan;97866.41;4984909;28;20527;-55
2022/09/21 03:24:58;;;;;;;15.03;6.27;;;;;;;2.91;nan;97869.03;4989505;28;20233;-58
2022/09/21 03:27:26;;;;;;;27.47;6.50;;;;;;;2.87;nan;97868.44;4985504;28;20260;-58
2022/09/21 03:29:55;;;;;;;40.13;7.27;;;;;;;2.78;nan;97859.50;4935963;28;20685;-58
2022/09/21 03:32:28;;;;;;;38.63;6.80;;;;;;;3.01;nan;97869.97;4952859;28;20901;-51
2022/09/21 03:34:56;;;;;;;25.03;7.03;;;;;;;3.02;nan;97869.84;4984388;28;20488;-57
2022/09/21 03:37:26;;;;;;;12.50;5.97;;;;;;;3.11;nan;97875.34;4981533;28;20694;-56
2022/09/21 03:39:54;;;;;;;5.73;5.27;;;;;;;3.16;nan;97881.88;4984234;28;20213;-54
2022/09/21 03:42:23;;;;;;;12.03;5.50;;;;;;;3.10;nan;97879.72;4964051;28;20205;-58
2022/09/21 03:44:51;;;;;;;14.10;6.73;;;;;;;3.10;nan;97874.50;4935787;28;20228;-59
2022/09/21 03:47:19;;;;;;;15.47;5.73;;;;;;;3.08;nan;97872.97;4984219;28;20701;-58
2022/09/21 03:49:48;;;;;;;16.00;4.80;;;;;;;3.10;nan;97879.72;4982004;28;20220;-57
2022/09/21 03:52:16;;;;;;;10.33;6.40;;;;;;;3.07;nan;97873.91;4982146;28;20217;-56
2022/09/21 03:54:46;;;;;;;20.73;5.43;;;;;;;2.98;nan;97880.69;4985648;28;20542;-60
2022/09/21 03:57:14;;;;;;;10.80;4.73;;;;;;;2.95;nan;97879.13;4983992;28;20209;-57
2022/09/21 03:59:42;;;;;;;24.23;5.77;;;;;;;2.94;nan;97874.03;4915305;28;20915;-58
2022/09/21 04:02:11;;;;;;;21.33;5.30;;;;;;;2.97;nan;97871.19;4983944;28;20217;-56
2022/09/21 04:04:39;;;;;;;15.57;4.67;;;;;;;3.01;nan;97885.69;4917962;28;20407;-59
2022/09/21 04:07:07;;;;;;;10.83;5.17;;;;;;;2.95;nan;97866.03;4985277;28;20612;-59
2022/09/21 04:09:35;;;;;;;20.00;6.50;;;;;;;3.06;nan;97882.72;4949177;28;20217;-57
2022/09/21 04:12:05;;;;;;;22.10;5.43;;;;;;;2.94;nan;97874.84;4986303;28;20221;-57
2022/09/21 04:14:35;;;;;;;8.10;5.60;;;;;;;3.00;nan;97884.03;4961792;28;20748;-57
2022/09/21 04:17:04;;;;;;;8.03;5.23;;;;;;;3.00;nan;97891.88;4982689;28;20205;-56
2022/09/21 04:19:32;;;;;;;18.70;6.57;;;;;;;2.90;nan;97889.13;4934138;28;20767;-58
2022/09/21 04:22:00;;;;;;;13.10;5.20;;;;;;;2.96;nan;97893.88;4983325;28;20284;-57
2022/09/21 04:24:29;;;;;;;5.57;4.00;;;;;;;2.89;nan;97890.09;4963226;28;20243;-56
2022/09/21 04:26:58;;;;;;;7.80;5.27;;;;;;;2.82;nan;97894.13;4982686;28;20429;-59
2022/09/21 04:29:28;;;;;;;16.90;6.43;;;;;;;2.84;nan;97905.31;4964745;28;20285;-55
2022/09/21 04:31:57;;;;;;;8.60;5.90;;;;;;;2.84;nan;97903.53;4959887;28;20731;-52
2022/09/21 04:34:26;;;;;;;5.00;4.60;;;;;;;2.94;nan;97905.44;4987843;28;20259;-54
2022/09/21 04:36:55;;;;;;;13.07;5.47;;;;;;;2.88;nan;97904.13;4941203;28;20512;-52
2022/09/21 04:39:24;;;;;;;5.57;4.00;;;;;;;2.92;nan;97910.78;4969213;28;20673;-54
2022/09/21 04:41:52;;;;;;;20.70;5.40;;;;;;;3.01;nan;97912.69;4965922;28;20579;-59
2022/09/21 04:44:20;;;;;;;8.80;5.53;;;;;;;2.98;nan;97914.72;4965788;28;20870;-54
2022/09/21 04:46:50;;;;;;;11.13;5.30;;;;;;;2.83;nan;97908.88;4984382;28;20590;-53
2022/09/21 04:49:19;;;;;;;17.90;5.43;;;;;;;2.75;nan;97905.06;4982529;28;20208;-54
2022/09/21 04:51:47;;;;;;;23.73;6.57;;;;;;;2.84;nan;97910.53;4936501;28;20216;-56
2022/09/21 04:54:16;;;;;;;15.40;4.87;;;;;;;2.81;nan;97910.78;4956972;28;21068;-59
2022/09/21 04:56:44;;;;;;;18.57;6.70;;;;;;;2.84;nan;97916.63;4968044;28;20212;-57
2022/09/21 04:59:13;;;;;;;6.77;5.03;;;;;;;2.80;nan;97917.78;4984329;28;20207;-58
2022/09/21 05:01:41;;;;;;;13.37;6.27;;;;;;;2.86;nan;97919.97;4968605;28;20209;-60
2022/09/21 05:04:11;;;;;;;35.77;6.47;;;;;;;2.77;nan;97915.41;4985513;28;20302;-57
2022/09/21 05:06:39;;;;;;;25.03;7.70;;;;;;;2.83;nan;97924.59;4941096;28;20426;-59
2022/09/21 05:11:54;;;;;;;5.40;4.63;;;;;;;2.89;nan;97939.81;4966829;28;20220;-56
2022/09/21 05:14:22;;;;;;;25.47;8.10;;;;;;;2.96;nan;97932.34;4981508;28;20228;-57
2022/09/21 05:16:51;;;;;;;19.10;6.70;;;;;;;2.95;nan;97935.91;4967133;28;20217;-58
2022/09/21 05:19:21;;;;;;;15.13;6.07;;;;;;;3.06;nan;97941.16;4982908;28;20208;-55
2022/09/21 05:21:49;;;;;;;17.73;5.53;;;;;;;3.26;nan;97946.66;4934972;28;20216;-59
2022/09/21 05:24:18;;;;;;;13.97;6.63;;;;;;;3.10;nan;97944.38;4969838;28;20225;-55
2022/09/21 05:26:46;;;;;;;26.03;7.97;;;;;;;3.17;nan;97946.38;4961919;28;20213;-54
2022/09/21 05:29:15;;;;;;;8.37;5.20;;;;;;;3.31;nan;97952.34;4979787;28;20209;-57
2022/09/21 05:31:47;;;;;;;9.83;5.03;;;;;;;3.35;nan;97953.78;4962192;28;20643;-55
2022/09/21 05:34:34;;;;;;;17.90;6.57;;;;;;;3.35;nan;97959.03;4987242;28;20236;-54
2022/09/21 05:37:08;;;;;;;26.10;6.47;;;;;;;3.31;nan;97955.81;4938226;28;20221;-60
2022/09/21 05:39:37;;;;;;;21.30;7.23;;;;;;;3.32;nan;97961.88;4978583;28;20201;-58
2022/09/21 05:42:06;;;;;;;49.63;8.03;;;;;;;3.32;nan;97961.88;4969852;28;20245;-57
2022/09/21 05:44:35;;;;;;;56.97;10.70;;;;;;;3.24;nan;97964.28;4982089;28;20621;-60
2022/09/21 05:47:11;;;;;;;39.77;8.03;;;;;;;3.23;nan;97965.22;4961558;28;20395;-59
2022/09/21 05:49:48;;;;;;;25.27;6.37;;;;;;;3.26;nan;97963.19;4987179;28;20562;-56
2022/09/21 05:52:21;;;;;;;33.57;7.33;;;;;;;3.41;nan;97971.66;4939014;28;20632;-59
2022/09/21 05:55:02;;;;;;;29.27;6.67;;;;;;;3.38;nan;97971.88;4988106;28;20450;-59
2022/09/21 05:57:41;;;;;;;13.97;5.97;;;;;;;3.34;nan;97954.75;4985692;28;20197;-54
2022/09/21 06:00:15;;;;;;;7.30;4.77;;;;;;;3.43;nan;97976.78;4987243;28;20664;-56
2022/09/21 06:02:55;;;;;;;24.10;7.10;;;;;;;3.38;nan;97971.88;4954578;28;20286;-58
2022/09/21 06:05:25;;;;;;;17.27;6.87;;;;;;;3.37;nan;97975.47;4990430;28;20231;-60
2022/09/21 06:07:54;;;;;;;27.53;6.03;;;;;;;3.36;nan;97971.16;4938070;28;20426;-59
2022/09/21 06:10:24;;;;;;;25.13;5.30;;;;;;;3.47;nan;97976.41;4932395;28;20209;-57
2022/09/21 06:12:52;;;;;;;5.13;4.73;;;;;;;3.69;nan;97973.88;4988032;28;20792;-57
2022/09/21 06:15:21;;;;;;;21.97;5.73;;;;;;;3.71;nan;97978.06;4986294;28;20652;-59
2022/09/21 06:17:49;;;;;;;20.83;6.20;;;;;;;3.68;nan;97980.09;4987433;28;20700;-58
2022/09/21 06:20:18;;;;;;;32.57;6.47;;;;;;;3.48;nan;97977.25;4988349;28;20596;-60
2022/09/21 06:22:47;;;;;;;57.37;8.00;;;;;;;3.52;nan;97975.22;4986321;28;20212;-57
2022/09/21 06:25:17;;;;;;;4.13;3.83;;;;;;;3.60;nan;97978.91;4942399;28;26431;-59
2022/09/21 06:27:46;;;;;;;13.67;5.83;;;;;;;3.62;nan;97979.63;4968636;28;20329;-58
2022/09/21 06:30:14;;;;;;;5.70;4.60;;;;;;;3.79;nan;97980.09;4987606;28;20201;-58
2022/09/21 06:32:43;;;;;;;27.60;7.50;;;;;;;3.80;nan;97981.75;4969910;28;20230;-56
2022/09/21 06:35:11;;;;;;;4.67;4.13;;;;;;;3.88;nan;97986.38;4988844;28;20779;-58
2022/09/21 06:37:40;;;;;;;35.50;7.87;;;;;;;3.84;nan;97987.56;4989782;28;20208;-57
2022/09/21 06:40:11;;;;;;;40.30;7.77;;;;;;;3.82;nan;97989.47;4935352;28;20255;-61
2022/09/21 06:42:39;;;;;;;13.80;6.93;;;;;;;3.84;nan;97990.19;4987083;28;20221;-56
2022/09/21 06:45:09;;;;;;;15.67;6.73;;;;;;;3.86;nan;97988.28;4986151;28;21151;-57
2022/09/21 06:47:37;;;;;;;28.53;6.67;;;;;;;3.93;nan;97988.63;4970041;28;20710;-58
2022/09/21 06:50:06;;;;;;;43.10;7.63;;;;;;;3.99;nan;97990.78;4972283;28;20213;-57
2022/09/21 06:52:36;;;;;;;23.63;5.40;;;;;;;3.94;nan;97992.94;4981925;28;20679;-58
2022/09/21 06:55:06;;;;;;;48.23;9.00;;;;;;;3.92;nan;97985.16;4980894;28;20449;-55
2022/09/21 06:57:36;;;;;;;14.10;6.00;;;;;;;3.92;nan;97987.78;4935419;28;20671;-58
2022/09/21 07:00:06;;;;;;;5.00;4.37;;;;;;;4.09;nan;97991.69;4979923;28;20523;-54
2022/09/21 07:02:35;;;;;;;10.53;5.17;;;;;;;4.18;nan;97993.59;4984975;28;20243;-56
2022/09/21 07:05:04;;;;;;;19.17;6.03;;;;;;;4.20;nan;97996.94;4960755;28;20867;-54
2022/09/21 07:07:33;;;;;;;22.23;7.90;;;;;;;4.10;nan;97982.06;4984248;28;20235;-57
2022/09/21 07:10:01;;;;;;;26.93;5.63;;;;;;;4.17;nan;98002.44;4979268;28;20308;-57
2022/09/21 07:12:34;;;;;;;11.10;5.47;;;;;;;4.28;nan;97998.91;4937635;28;20217;-58
2022/09/21 07:15:05;;;;;;;6.13;4.90;;;;;;;4.62;nan;98003.22;4979534;28;20418;-61
2022/09/21 07:17:33;;;;;;;12.00;5.73;;;;;;;4.42;nan;97997.81;4979624;28;20209;-58
2022/09/21 07:20:02;;;;;;;7.40;4.90;;;;;;;4.58;nan;98005.25;4961702;28;20882;-58
2022/09/21 07:22:31;;;;;;;16.43;5.50;;;;;;;4.71;nan;98006.88;4980788;28;20270;-56
2022/09/21 07:25:00;;;;;;;24.30;6.20;;;;;;;4.80;nan;97995.63;4974854;28;20340;-55
2022/09/21 07:27:30;;;;;;;10.83;5.40;;;;;;;5.04;nan;97997.16;4985980;28;20204;-57
2022/09/21 07:29:58;;;;;;;32.27;6.60;;;;;;;4.89;nan;98001.88;4932585;28;20472;-56
2022/09/21 07:32:30;;;;;;;26.03;6.10;;;;;;;5.06;nan;98000.47;4981463;28;20212;-59
2022/09/21 07:34:58;;;;;;;15.63;5.77;;;;;;;5.06;nan;98008.34;4960227;28;20261;-56
2022/09/21 07:37:28;;;;;;;5.80;4.60;;;;;;;5.03;nan;97996.34;4985196;28;20216;-57
2022/09/21 07:39:56;;;;;;;20.17;4.70;;;;;;;5.38;nan;97999.56;4981313;28;20213;-55
2022/09/21 07:42:26;;;;;;;5.37;4.60;;;;;;;5.70;nan;98009.09;4983337;28;20270;-59
2022/09/21 07:44:55;;;;;;;5.93;4.43;;;;;;;5.75;nan;98006.91;4930908;28;20229;-56
2022/09/21 07:47:32;;;;;;;8.90;5.10;;;;;;;5.71;nan;98005.50;4980522;28;20212;-56
2022/09/21 07:50:00;;;;;;;11.33;4.30;;;;;;;5.79;nan;98003.03;4961755;28;20233;-58
2022/09/21 07:52:29;;;;;;;6.97;4.30;;;;;;;5.91;nan;98006.41;4982481;28;20216;-57
2022/09/21 07:54:57;;;;;;;5.03;4.63;;;;;;;6.02;nan;98002.88;4980799;28;20233;-56
2022/09/21 08:00:12;;;;;;;4.40;4.20;;;;;;;6.56;nan;97996.44;4928860;28;20445;-57
2022/09/21 08:02:42;;;;;;;5.40;4.40;;;;;;;6.37;nan;98003.34;4982260;28;20463;-58
2022/09/21 08:05:15;;;;;;;7.70;4.77;;;;;;;6.33;nan;97994.06;4969201;28;20795;-54
2022/09/21 08:07:43;;;;;;;4.43;4.07;;;;;;;6.49;nan;97990.88;4980338;28;20889;-57
2022/09/21 08:10:12;;;;;;;5.30;4.57;;;;;;;6.51;nan;97991.56;4981064;28;20705;-57
2022/09/21 08:12:41;;;;;;;5.00;4.37;;;;;;;6.70;nan;97992.56;4982066;28;20639;-54
2022/09/21 08:15:10;;;;;;;4.67;4.27;;;;;;;6.61;nan;97995.03;4938920;28;20244;-56
2022/09/21 08:18:00;;;;;;;3.90;3.70;;;;;;;6.84;nan;97992.13;4929267;28;20908;-61
2022/09/21 08:20:28;;;;;;;4.33;4.13;;;;;;;7.03;nan;97987.81;4985988;28;20950;-59
2022/09/21 08:22:57;;;;;;;4.50;4.20;;;;;;;7.31;nan;97991.34;4988266;28;20325;-55
2022/09/21 08:25:26;;;;;;;4.60;4.23;;;;;;;7.00;nan;97988.91;4982472;28;20241;-58
2022/09/21 08:27:59;;;;;;;4.30;4.10;;;;;;;7.27;nan;97997.03;4983771;28;20326;-62
2022/09/21 08:30:29;;;;;;;4.47;3.40;;;;;;;7.18;nan;97988.16;4985304;28;20735;-55
2022/09/21 08:32:59;;;;;;;6.83;4.30;;;;;;;7.15;nan;97983.19;4934786;28;21314;-60
2022/09/21 08:35:28;;;;;;;5.43;3.90;;;;;;;7.34;nan;97988.41;4971484;28;21589;-56
2022/09/21 08:37:56;;;;;;;4.70;4.40;;;;;;;7.36;nan;97991.75;4986600;28;20213;-57
2022/09/21 08:40:24;;;;;;;4.53;4.33;;;;;;;7.53;nan;97987.53;4984125;28;20233;-58
2022/09/21 08:42:58;;;;;;;5.03;4.73;;;;;;;7.62;nan;97991.09;4985678;28;20390;-57
2022/09/21 08:45:31;;;;;;;4.27;4.07;;;;;;;7.75;nan;97993.38;4986164;28;20303;-56
2022/09/21 08:48:03;;;;;;;4.83;4.53;;;;;;;7.79;nan;97996.56;4935405;28;20224;-58
2022/09/21 08:50:35;;;;;;;4.33;4.03;;;;;;;7.82;nan;98001.56;4968349;28;20236;-57
2022/09/21 08:53:06;;;;;;;4.23;3.97;;;;;;;8.23;nan;97993.28;4987781;28;20741;-59
2022/09/21 08:55:35;;;;;;;5.03;3.87;;;;;;;8.53;nan;98007.97;4987511;28;20205;-59
2022/09/21 08:58:03;;;;;;;4.33;4.10;;;;;;;8.87;nan;97998.50;4985355;28;20528;-57
2022/09/21 09:00:36;;;;;;;4.73;4.37;;;;;;;8.93;nan;97997.06;4989323;28;20204;-56
2022/09/21 09:03:40;;;;;;;4.83;4.47;;;;;;;8.93;nan;97990.00;4946354;28;20217;-56
2022/09/21 09:06:12;;;;;;;4.63;4.33;;;;;;;8.76;nan;97988.19;4965045;28;20332;-56
2022/09/21 09:08:55;;;;;;;4.93;4.53;;;;;;;8.65;nan;97987.44;4987588;28;20216;-55
2022/09/21 09:11:31;;;;;;;4.83;4.47;;;;;;;8.81;nan;97991.19;4984942;28;20205;-60
2022/09/21 09:14:28;;;;;;;4.93;4.53;;;;;;;8.61;nan;97994.00;4987965;28;20839;-54
2022/09/21 09:17:11;;;;;;;5.73;5.33;;;;;;;8.63;nan;97981.47;4986273;28;20484;-58
2022/09/21 09:19:44;;;;;;;4.43;4.13;;;;;;;8.92;nan;97987.47;4929698;28;20222;-60
2022/09/21 09:22:17;;;;;;;4.67;4.37;;;;;;;9.26;nan;97986.72;4969054;28;20336;-58
2022/09/21 09:24:48;;;;;;;4.70;4.40;;;;;;;9.55;nan;97990.88;4986715;28;20229;-56
2022/09/21 09:27:19;;;;;;;4.40;4.13;;;;;;;9.63;nan;97984.75;4984089;28;20302;-60
2022/09/21 09:29:54;;;;;;;4.10;3.87;;;;;;;9.70;nan;97977.88;4993337;28;20248;-59
2022/09/21 09:32:30;;;;;;;4.33;4.03;;;;;;;10.12;nan;97981.47;4993063;28;20216;-58
2022/09/21 09:35:06;;;;;;;4.97;4.67;;;;;;;10.47;nan;97984.09;4942934;28;20260;-56
2022/09/21 09:37:38;;;;;;;4.67;4.37;;;;;;;10.12;nan;97973.53;4974907;28;20216;-58
2022/09/21 09:40:07;;;;;;;4.60;4.27;;;;;;;10.04;nan;97976.16;4991012;28;20270;-57
2022/09/21 09:42:43;;;;;;;4.60;4.30;;;;;;;9.90;nan;97985.56;4990079;28;20200;-58
2022/09/21 09:45:43;;;;;;;5.13;4.73;;;;;;;9.74;nan;97970.44;4984083;28;20232;-59
2022/09/21 09:48:28;;;;;;;4.67;4.17;;;;;;;9.71;nan;97963.66;4990500;28;20835;-57
2022/09/21 09:50:58;;;;;;;4.70;4.30;;;;;;;9.68;nan;97971.91;4942655;28;20236;-58
2022/09/21 09:53:27;;;;;;;4.53;4.23;;;;;;;9.61;nan;97968.22;4974460;28;20237;-54
2022/09/21 09:55:57;;;;;;;4.23;4.03;;;;;;;9.62;nan;97967.22;4989006;28;20260;-56
2022/09/21 09:58:33;;;;;;;4.77;4.47;;;;;;;9.52;nan;97957.59;4987396;28;20596;-56
2022/09/21 10:01:01;;;;;;;4.90;4.60;;;;;;;9.65;nan;97961.63;4989332;28;20209;-58
2022/09/21 10:03:30;;;;;;;4.60;4.30;;;;;;;9.73;nan;97964.31;4965326;28;20713;-56
2022/09/21 10:06:00;;;;;;;3.93;3.73;;;;;;;9.73;nan;97958.19;4940084;28;20605;-53
2022/09/21 10:08:43;;;;;;;4.27;4.07;;;;;;;9.93;nan;97956.09;4971055;28;20218;-58
2022/09/21 10:11:12;;;;;;;3.93;3.67;;;;;;;9.93;nan;97961.41;4992244;28;20724;-56
2022/09/21 10:13:42;;;;;;;4.00;3.80;;;;;;;9.92;nan;97954.44;4987599;28;20255;-56
2022/09/21 10:16:15;;;;;;;3.67;3.40;;;;;;;10.11;nan;97946.25;4988914;28;20219;-56
2022/09/21 10:18:48;;;;;;;4.23;3.93;;;;;;;10.39;nan;97950.44;4990368;28;20220;-57
2022/09/21 10:21:20;;;;;;;3.90;3.70;;;;;;;10.52;nan;97931.44;4955807;28;20209;-56
2022/09/21 10:23:50;;;;;;;3.67;3.37;;;;;;;10.64;nan;97945.19;4971841;28;20232;-58
2022/09/21 10:26:19;;;;;;;3.70;3.37;;;;;;;10.68;nan;97942.00;4915569;28;20220;-59
2022/09/21 10:28:58;;;;;;;3.53;3.33;;;;;;;10.81;nan;97936.22;4987004;28;20809;-59
2022/09/21 10:31:28;;;;;;;3.37;3.17;;;;;;;11.00;nan;97939.53;4989643;28;20233;-58
2022/09/21 10:34:07;;;;;;;3.10;2.97;;;;;;;11.11;nan;97919.75;4964293;28;20936;-62
2022/09/21 10:36:38;;;;;;;3.30;3.10;;;;;;;11.24;nan;97922.72;4986617;28;20724;-58
2022/09/21 10:39:28;;;;;;;3.67;3.47;;;;;;;11.29;nan;97923.03;4983769;28;20217;-56
2022/09/21 10:42:02;;;;;;;3.00;2.80;;;;;;;11.42;nan;97919.84;4948386;28;20444;-58
2022/09/21 10:44:37;;;;;;;3.73;2.43;;;;;;;11.64;nan;97919.28;4971240;28;20232;-57
2022/09/21 10:47:19;;;;;;;2.63;2.43;;;;;;;11.57;nan;97927.09;4989573;28;20231;-59
2022/09/21 10:49:50;;;;;;;2.60;2.50;;;;;;;11.72;nan;97924.53;4976331;28;20322;-58
2022/09/21 10:52:23;;;;;;;2.70;2.50;;;;;;;11.88;nan;97916.47;4986519;28;20216;-57
2022/09/21 10:54:54;;;;;;;2.00;1.90;;;;;;;11.97;nan;97913.81;4984186;28;20228;-56
2022/09/21 10:57:24;;;;;;;2.50;2.40;;;;;;;12.18;nan;97915.88;4939026;28;20222;-58
2022/09/21 10:59:52;;;;;;;2.20;2.00;;;;;;;12.16;nan;97913.38;4942872;28;20347;-59
2022/09/21 11:02:35;;;;;;;2.37;2.27;;;;;;;12.13;nan;97911.06;4986617;28;20213;-55
2022/09/21 11:05:09;;;;;;;2.43;2.17;;;;;;;12.40;nan;97910.72;4974233;28;20738;-59
2022/09/21 11:07:43;;;;;;;2.10;2.00;;;;;;;12.51;nan;97907.66;4987026;28;20845;-56
2022/09/21 11:10:18;;;;;;;1.97;1.87;;;;;;;12.38;nan;97904.75;4988831;28;20229;-56
2022/09/21 11:12:54;;;;;;;2.30;2.10;;;;;;;12.32;nan;97908.97;4941453;28;20608;-60
2022/09/21 11:15:32;;;;;;;2.00;1.90;;;;;;;12.42;nan;97904.22;4966328;28;20236;-56
2022/09/21 11:18:05;;;;;;;1.67;1.67;;;;;;;12.67;nan;97904.00;4986994;28;20596;-56
2022/09/21 11:20:39;;;;;;;1.63;1.63;;;;;;;12.61;nan;97903.91;4974514;28;20753;-59
2022/09/21 11:23:17;;;;;;;1.87;1.77;;;;;;;12.81;nan;97893.59;4990314;28;20232;-57
2022/09/21 11:25:49;;;;;;;2.43;2.23;;;;;;;12.76;nan;97896.78;4989240;28;20210;-56
2022/09/21 11:28:21;;;;;;;2.80;1.73;;;;;;;12.77;nan;97885.16;4936080;28;20238;-57
2022/09/21 11:31:09;;;;;;;1.67;1.57;;;;;;;12.78;nan;97896.63;4967312;28;20660;-58
2022/09/21 11:33:52;;;;;;;1.80;1.70;;;;;;;12.91;nan;97890.69;4986360;28;20479;-58
2022/09/21 11:36:25;;;;;;;1.80;1.70;;;;;;;13.07;nan;97887.84;4969433;28;20223;-57
2022/09/21 11:39:00;;;;;;;1.90;1.80;;;;;;;12.76;nan;97885.34;4991079;28;20749;-59
2022/09/21 11:41:50;;;;;;;2.27;2.07;;;;;;;12.80;nan;97887.44;4985703;28;20260;-58
2022/09/21 11:44:36;;;;;;;1.83;1.80;;;;;;;12.66;nan;97885.59;4937832;28;20689;-58
2022/09/21 11:47:11;;;;;;;2.40;2.17;;;;;;;12.51;nan;97881.06;4970689;28;20212;-59
2022/09/21 11:50:04;;;;;;;3.13;2.13;;;;;;;12.68;nan;97868.44;4987387;28;20411;-59
2022/09/21 11:53:00;;;;;;;3.47;2.63;;;;;;;13.44;nan;97880.81;4988218;28;20196;-58
2022/09/21 11:55:43;;;;;;;1.73;1.63;;;;;;;13.92;nan;97881.38;4985587;28;20229;-58
2022/09/21 11:58:18;;;;;;;2.23;2.10;;;;;;;14.37;nan;97879.34;4938249;28;20209;-56
2022/09/21 12:00:56;;;;;;;7.47;3.30;;;;;;;14.85;nan;97876.06;4969758;28;20564;-57
2022/09/21 12:03:51;;;;;;;1.70;1.60;;;;;;;15.36;nan;97871.44;4985064;28;20581;-55
2022/09/21 12:06:34;;;;;;;1.70;1.70;;;;;;;15.83;nan;97873.47;4970669;28;20220;-55
2022/09/21 12:09:31;;;;;;;1.80;1.70;;;;;;;15.87;nan;97869.38;4985362;28;20406;-60
2022/09/21 12:12:08;;;;;;;2.10;2.00;;;;;;;15.53;nan;97850.56;4985741;28;20715;-56
2022/09/21 12:14:43;;;;;;;1.90;1.80;;;;;;;15.32;nan;97865.66;4936658;28;20225;-61
2022/09/21 12:17:15;;;;;;;1.97;1.87;;;;;;;14.96;nan;97864.03;4963154;28;20784;-56
2022/09/21 12:19:47;;;;;;;1.60;1.60;;;;;;;14.94;nan;97875.94;4988361;28;20201;-59
2022/09/21 12:22:18;;;;;;;2.43;2.23;;;;;;;14.83;nan;97863.94;4973411;28;20213;-59
2022/09/21 12:24:48;;;;;;;6.07;2.17;;;;;;;14.59;nan;97866.00;4989505;28;20224;-55